sensor_id;sensor_type;location;lat;lon;timestamp;temperature;humidity
21149;DHT22;10732;51.472;6.466;2023-09-07T00:00:14;17.80;99.90
21149;DHT22;10732;51.472;6.466;2023-09-07T00:02:40;17.70;99.90
21149;DHT22;10732;51.472;6.466;2023-09-07T00:05:09;17.70;99.90
21149;DHT22;10732;51.472;6.466;2023-09-07T00:07:35;17.70;99.90
21149;DHT22;10732;51.472;6.466;2023-09-07T00:10:02;17.60;99.90
21149;DHT22;10732;51.472;6.466;2023-09-07T00:12:28;17.60;99.90
21149;DHT22;10732;51.472;6.466;2023-09-07T00:14:54;17.60;99.90
21149;DHT22;10732;51.472;6.466;2023-09-07T00:17:20;17.60;99.90
21149;DHT22;10732;51.472;6.466;2023-09-07T00:19:46;17.70;99.90
21149;DHT22;10732;51.472;6.466;2023-09-07T00:22:14;17.60;99.90
21149;DHT22;10732;51.472;6.466;2023-09-07T00:24:40;17.60;99.90
21149;DHT22;10732;51.472;6.466;2023-09-07T00:27:06;17.50;99.90
21149;DHT22;10732;51.472;6.466;2023-09-07T00:29:34;17.50;99.90
21149;DHT22;10732;51.472;6.466;2023-09-07T00:32:00;17.50;99.90
21149;DHT22;10732;51.472;6.466;2023-09-07T00:34:25;17.50;99.90
21149;DHT22;10732;51.472;6.466;2023-09-07T00:36:51;17.40;99.90
21149;DHT22;10732;51.472;6.466;2023-09-07T00:39:16;17.40;99.90
21149;DHT22;10732;51.472;6.466;2023-09-07T00:41:42;17.30;99.90
21149;DHT22;10732;51.472;6.466;2023-09-07T00:44:07;17.30;99.90
21149;DHT22;10732;51.472;6.466;2023-09-07T00:46:33;17.30;99.90
21149;DHT22;10732;51.472;6.466;2023-09-07T00:48:58;17.20;99.90
21149;DHT22;10732;51.472;6.466;2023-09-07T00:51:24;17.20;99.90
21149;DHT22;10732;51.472;6.466;2023-09-07T00:53:50;17.10;99.90
21149;DHT22;10732;51.472;6.466;2023-09-07T00:56:16;17.10;99.90
21149;DHT22;10732;51.472;6.466;2023-09-07T00:58:42;17.10;99.90
21149;DHT22;10732;51.472;6.466;2023-09-07T01:01:08;17.00;99.90
21149;DHT22;10732;51.472;6.466;2023-09-07T01:03:34;17.10;99.90
21149;DHT22;10732;51.472;6.466;2023-09-07T01:06:07;17.00;99.90
21149;DHT22;10732;51.472;6.466;2023-09-07T01:08:47;17.00;99.90
21149;DHT22;10732;51.472;6.466;2023-09-07T01:11:15;17.00;99.90
21149;DHT22;10732;51.472;6.466;2023-09-07T01:13:41;16.90;99.90
21149;DHT22;10732;51.472;6.466;2023-09-07T01:16:10;16.90;99.90
21149;DHT22;10732;51.472;6.466;2023-09-07T01:18:38;16.80;99.90
21149;DHT22;10732;51.472;6.466;2023-09-07T01:21:08;16.80;99.90
21149;DHT22;10732;51.472;6.466;2023-09-07T01:23:36;16.80;99.90
21149;DHT22;10732;51.472;6.466;2023-09-07T01:26:02;16.70;99.90
21149;DHT22;10732;51.472;6.466;2023-09-07T01:28:28;16.70;99.90
21149;DHT22;10732;51.472;6.466;2023-09-07T01:30:54;16.70;99.90
21149;DHT22;10732;51.472;6.466;2023-09-07T01:33:19;16.60;99.90
21149;DHT22;10732;51.472;6.466;2023-09-07T01:35:45;16.60;99.90
21149;DHT22;10732;51.472;6.466;2023-09-07T01:38:11;16.60;99.90
21149;DHT22;10732;51.472;6.466;2023-09-07T01:40:37;16.60;99.90
21149;DHT22;10732;51.472;6.466;2023-09-07T01:43:02;16.60;99.90
21149;DHT22;10732;51.472;6.466;2023-09-07T01:45:28;16.50;99.90
21149;DHT22;10732;51.472;6.466;2023-09-07T01:47:54;16.50;99.90
21149;DHT22;10732;51.472;6.466;2023-09-07T01:50:19;16.50;99.90
21149;DHT22;10732;51.472;6.466;2023-09-07T01:52:48;16.60;99.90
21149;DHT22;10732;51.472;6.466;2023-09-07T01:55:16;16.60;99.90
21149;DHT22;10732;51.472;6.466;2023-09-07T01:57:42;16.60;99.90
21149;DHT22;10732;51.472;6.466;2023-09-07T02:00:10;16.60;99.90
21149;DHT22;10732;51.472;6.466;2023-09-07T02:02:35;16.60;99.90
21149;DHT22;10732;51.472;6.466;2023-09-07T02:05:01;16.60;99.90
21149;DHT22;10732;51.472;6.466;2023-09-07T02:07:26;16.60;99.90
21149;DHT22;10732;51.472;6.466;2023-09-07T02:09:52;16.60;99.90
21149;DHT22;10732;51.472;6.466;2023-09-07T02:12:18;16.50;99.90
21149;DHT22;10732;51.472;6.466;2023-09-07T02:14:43;16.40;99.90
21149;DHT22;10732;51.472;6.466;2023-09-07T02:17:09;16.40;99.90
21149;DHT22;10732;51.472;6.466;2023-09-07T02:19:35;16.40;99.90
21149;DHT22;10732;51.472;6.466;2023-09-07T02:22:01;16.30;99.90
21149;DHT22;10732;51.472;6.466;2023-09-07T02:24:26;16.20;99.90
21149;DHT22;10732;51.472;6.466;2023-09-07T02:26:52;16.20;99.90
21149;DHT22;10732;51.472;6.466;2023-09-07T02:29:17;16.10;99.90
21149;DHT22;10732;51.472;6.466;2023-09-07T02:31:43;16.10;99.90
21149;DHT22;10732;51.472;6.466;2023-09-07T02:34:08;16.00;99.90
21149;DHT22;10732;51.472;6.466;2023-09-07T02:36:34;16.10;99.90
21149;DHT22;10732;51.472;6.466;2023-09-07T02:39:00;16.10;99.90
21149;DHT22;10732;51.472;6.466;2023-09-07T02:41:27;16.10;99.90
21149;DHT22;10732;51.472;6.466;2023-09-07T02:43:52;16.10;99.90
21149;DHT22;10732;51.472;6.466;2023-09-07T02:46:18;16.00;99.90
21149;DHT22;10732;51.472;6.466;2023-09-07T02:48:43;16.10;99.90
21149;DHT22;10732;51.472;6.466;2023-09-07T02:51:09;16.10;99.90
21149;DHT22;10732;51.472;6.466;2023-09-07T02:53:34;16.10;99.90
21149;DHT22;10732;51.472;6.466;2023-09-07T02:56:00;16.00;99.90
21149;DHT22;10732;51.472;6.466;2023-09-07T02:58:29;16.00;99.90
21149;DHT22;10732;51.472;6.466;2023-09-07T03:00:54;15.80;99.90
21149;DHT22;10732;51.472;6.466;2023-09-07T03:03:20;15.80;99.90
21149;DHT22;10732;51.472;6.466;2023-09-07T03:05:45;15.80;99.90
21149;DHT22;10732;51.472;6.466;2023-09-07T03:08:11;15.80;99.90
21149;DHT22;10732;51.472;6.466;2023-09-07T03:10:38;15.70;99.90
21149;DHT22;10732;51.472;6.466;2023-09-07T03:13:05;15.70;99.90
21149;DHT22;10732;51.472;6.466;2023-09-07T03:15:31;15.60;99.90
21149;DHT22;10732;51.472;6.466;2023-09-07T03:17:56;15.50;99.90
21149;DHT22;10732;51.472;6.466;2023-09-07T03:20:22;15.50;99.90
21149;DHT22;10732;51.472;6.466;2023-09-07T03:22:48;15.50;99.90
21149;DHT22;10732;51.472;6.466;2023-09-07T03:25:14;15.40;99.90
21149;DHT22;10732;51.472;6.466;2023-09-07T03:27:40;15.50;99.90
21149;DHT22;10732;51.472;6.466;2023-09-07T03:30:06;15.30;99.90
21149;DHT22;10732;51.472;6.466;2023-09-07T03:32:33;15.40;99.90
21149;DHT22;10732;51.472;6.466;2023-09-07T03:34:59;15.40;99.90
21149;DHT22;10732;51.472;6.466;2023-09-07T03:37:28;15.40;99.90
21149;DHT22;10732;51.472;6.466;2023-09-07T03:39:55;15.40;99.90
21149;DHT22;10732;51.472;6.466;2023-09-07T03:42:21;15.40;99.90
21149;DHT22;10732;51.472;6.466;2023-09-07T03:44:47;15.40;99.90
21149;DHT22;10732;51.472;6.466;2023-09-07T03:47:13;15.40;99.90
21149;DHT22;10732;51.472;6.466;2023-09-07T03:49:39;15.30;99.90
21149;DHT22;10732;51.472;6.466;2023-09-07T03:52:05;15.30;99.90
21149;DHT22;10732;51.472;6.466;2023-09-07T03:54:31;15.30;99.90
21149;DHT22;10732;51.472;6.466;2023-09-07T03:56:57;15.30;99.90
21149;DHT22;10732;51.472;6.466;2023-09-07T03:59:22;15.20;99.90
21149;DHT22;10732;51.472;6.466;2023-09-07T04:01:48;15.20;99.90
21149;DHT22;10732;51.472;6.466;2023-09-07T04:04:14;15.20;99.90
21149;DHT22;10732;51.472;6.466;2023-09-07T04:06:40;15.20;99.90
21149;DHT22;10732;51.472;6.466;2023-09-07T04:09:05;15.20;99.90
21149;DHT22;10732;51.472;6.466;2023-09-07T04:11:31;15.10;99.90
21149;DHT22;10732;51.472;6.466;2023-09-07T04:13:57;15.10;99.90
21149;DHT22;10732;51.472;6.466;2023-09-07T04:16:23;15.00;99.90
21149;DHT22;10732;51.472;6.466;2023-09-07T04:18:48;15.00;99.90
21149;DHT22;10732;51.472;6.466;2023-09-07T04:21:14;15.00;99.90
21149;DHT22;10732;51.472;6.466;2023-09-07T04:23:39;15.00;99.90
21149;DHT22;10732;51.472;6.466;2023-09-07T04:26:10;14.90;99.90
21149;DHT22;10732;51.472;6.466;2023-09-07T04:28:36;14.90;99.90
21149;DHT22;10732;51.472;6.466;2023-09-07T04:31:03;14.90;99.90
21149;DHT22;10732;51.472;6.466;2023-09-07T04:33:32;14.80;99.90
21149;DHT22;10732;51.472;6.466;2023-09-07T04:36:11;14.80;99.90
21149;DHT22;10732;51.472;6.466;2023-09-07T04:38:37;14.80;99.90
21149;DHT22;10732;51.472;6.466;2023-09-07T04:41:10;14.70;99.90
21149;DHT22;10732;51.472;6.466;2023-09-07T04:43:37;14.70;99.90
21149;DHT22;10732;51.472;6.466;2023-09-07T04:46:06;14.80;99.90
21149;DHT22;10732;51.472;6.466;2023-09-07T04:48:32;14.70;99.90
21149;DHT22;10732;51.472;6.466;2023-09-07T04:51:01;14.70;99.90
21149;DHT22;10732;51.472;6.466;2023-09-07T04:53:28;14.80;99.90
21149;DHT22;10732;51.472;6.466;2023-09-07T04:55:54;14.80;99.90
21149;DHT22;10732;51.472;6.466;2023-09-07T04:58:20;14.80;99.90
21149;DHT22;10732;51.472;6.466;2023-09-07T05:00:45;14.80;99.90
21149;DHT22;10732;51.472;6.466;2023-09-07T05:03:11;14.90;99.90
21149;DHT22;10732;51.472;6.466;2023-09-07T05:05:38;14.90;99.90
21149;DHT22;10732;51.472;6.466;2023-09-07T05:08:04;15.00;99.90
21149;DHT22;10732;51.472;6.466;2023-09-07T05:10:33;15.30;99.90
21149;DHT22;10732;51.472;6.466;2023-09-07T05:12:58;15.60;99.90
21149;DHT22;10732;51.472;6.466;2023-09-07T05:15:24;15.90;99.90
21149;DHT22;10732;51.472;6.466;2023-09-07T05:17:50;16.10;99.90
21149;DHT22;10732;51.472;6.466;2023-09-07T05:20:15;16.40;99.90
21149;DHT22;10732;51.472;6.466;2023-09-07T05:22:41;16.60;99.90
21149;DHT22;10732;51.472;6.466;2023-09-07T05:25:07;17.00;99.90
21149;DHT22;10732;51.472;6.466;2023-09-07T05:27:34;17.40;99.90
21149;DHT22;10732;51.472;6.466;2023-09-07T05:30:00;17.80;99.90
21149;DHT22;10732;51.472;6.466;2023-09-07T05:32:25;18.10;99.90
21149;DHT22;10732;51.472;6.466;2023-09-07T05:34:51;18.60;99.90
21149;DHT22;10732;51.472;6.466;2023-09-07T05:37:17;19.00;99.90
21149;DHT22;10732;51.472;6.466;2023-09-07T05:39:42;19.30;99.90
21149;DHT22;10732;51.472;6.466;2023-09-07T05:42:08;19.80;99.90
21149;DHT22;10732;51.472;6.466;2023-09-07T05:44:33;20.20;99.90
21149;DHT22;10732;51.472;6.466;2023-09-07T05:46:59;20.50;1.00
21149;DHT22;10732;51.472;6.466;2023-09-07T05:49:24;20.80;1.00
21149;DHT22;10732;51.472;6.466;2023-09-07T05:51:50;21.30;1.00
21149;DHT22;10732;51.472;6.466;2023-09-07T05:54:16;21.80;99.90
21149;DHT22;10732;51.472;6.466;2023-09-07T05:56:41;22.60;99.90
21149;DHT22;10732;51.472;6.466;2023-09-07T05:59:07;23.20;1.00
21149;DHT22;10732;51.472;6.466;2023-09-07T06:01:32;23.20;1.00
21149;DHT22;10732;51.472;6.466;2023-09-07T06:03:59;23.10;1.00
21149;DHT22;10732;51.472;6.466;2023-09-07T06:06:25;22.70;1.00
21149;DHT22;10732;51.472;6.466;2023-09-07T06:08:50;21.60;99.90
21149;DHT22;10732;51.472;6.466;2023-09-07T06:11:16;20.80;99.90
21149;DHT22;10732;51.472;6.466;2023-09-07T06:13:41;20.50;1.00
21149;DHT22;10732;51.472;6.466;2023-09-07T06:16:07;20.20;99.90
21149;DHT22;10732;51.472;6.466;2023-09-07T06:18:33;20.00;99.90
21149;DHT22;10732;51.472;6.466;2023-09-07T06:20:58;19.80;1.00
21149;DHT22;10732;51.472;6.466;2023-09-07T06:23:24;19.40;1.00
21149;DHT22;10732;51.472;6.466;2023-09-07T06:25:49;19.30;99.90
21149;DHT22;10732;51.472;6.466;2023-09-07T06:28:15;19.40;99.90
21149;DHT22;10732;51.472;6.466;2023-09-07T06:30:40;19.50;8.40
21149;DHT22;10732;51.472;6.466;2023-09-07T06:33:06;19.70;1.00
21149;DHT22;10732;51.472;6.466;2023-09-07T06:35:31;20.10;1.00
21149;DHT22;10732;51.472;6.466;2023-09-07T06:37:57;21.10;99.90
21149;DHT22;10732;51.472;6.466;2023-09-07T06:40:22;22.90;1.00
21149;DHT22;10732;51.472;6.466;2023-09-07T06:42:48;24.10;1.00
21149;DHT22;10732;51.472;6.466;2023-09-07T06:45:13;24.80;16.10
21149;DHT22;10732;51.472;6.466;2023-09-07T06:47:39;25.30;1.00
21149;DHT22;10732;51.472;6.466;2023-09-07T06:50:05;26.60;1.00
21149;DHT22;10732;51.472;6.466;2023-09-07T06:52:31;27.20;99.90
21149;DHT22;10732;51.472;6.466;2023-09-07T06:54:56;27.70;60.40
21149;DHT22;10732;51.472;6.466;2023-09-07T06:57:22;27.60;93.40
21149;DHT22;10732;51.472;6.466;2023-09-07T06:59:48;28.00;99.90
21149;DHT22;10732;51.472;6.466;2023-09-07T07:02:14;29.40;1.00
21149;DHT22;10732;51.472;6.466;2023-09-07T07:04:39;28.70;1.00
21149;DHT22;10732;51.472;6.466;2023-09-07T07:07:05;28.60;1.00
21149;DHT22;10732;51.472;6.466;2023-09-07T07:09:31;29.30;1.00
21149;DHT22;10732;51.472;6.466;2023-09-07T07:11:59;29.10;1.00
21149;DHT22;10732;51.472;6.466;2023-09-07T07:14:26;29.30;1.00
21149;DHT22;10732;51.472;6.466;2023-09-07T07:16:51;29.50;1.00
21149;DHT22;10732;51.472;6.466;2023-09-07T07:19:16;28.80;1.00
21149;DHT22;10732;51.472;6.466;2023-09-07T07:21:42;28.80;1.00
21149;DHT22;10732;51.472;6.466;2023-09-07T07:24:07;29.70;1.00
21149;DHT22;10732;51.472;6.466;2023-09-07T07:26:34;30.20;1.00
21149;DHT22;10732;51.472;6.466;2023-09-07T07:28:59;30.30;1.00
21149;DHT22;10732;51.472;6.466;2023-09-07T07:31:25;30.50;1.00
21149;DHT22;10732;51.472;6.466;2023-09-07T07:33:50;31.50;1.00
21149;DHT22;10732;51.472;6.466;2023-09-07T07:36:16;31.40;1.00
21149;DHT22;10732;51.472;6.466;2023-09-07T07:38:42;30.80;1.00
21149;DHT22;10732;51.472;6.466;2023-09-07T07:41:07;31.00;1.00
21149;DHT22;10732;51.472;6.466;2023-09-07T07:43:33;31.00;1.00
21149;DHT22;10732;51.472;6.466;2023-09-07T07:45:59;30.60;1.00
21149;DHT22;10732;51.472;6.466;2023-09-07T07:48:25;30.90;1.00
21149;DHT22;10732;51.472;6.466;2023-09-07T07:50:50;30.30;1.00
21149;DHT22;10732;51.472;6.466;2023-09-07T07:53:16;31.60;1.00
21149;DHT22;10732;51.472;6.466;2023-09-07T07:55:42;31.00;1.00
21149;DHT22;10732;51.472;6.466;2023-09-07T07:58:10;31.60;1.00
21149;DHT22;10732;51.472;6.466;2023-09-07T08:00:37;32.30;1.00
21149;DHT22;10732;51.472;6.466;2023-09-07T08:03:03;32.00;1.00
21149;DHT22;10732;51.472;6.466;2023-09-07T08:05:31;31.60;1.00
21149;DHT22;10732;51.472;6.466;2023-09-07T08:07:57;32.50;1.00
21149;DHT22;10732;51.472;6.466;2023-09-07T08:10:23;33.60;1.00
21149;DHT22;10732;51.472;6.466;2023-09-07T08:12:54;33.40;99.90
21149;DHT22;10732;51.472;6.466;2023-09-07T08:15:21;33.30;99.90
21149;DHT22;10732;51.472;6.466;2023-09-07T08:17:48;33.70;99.90
21149;DHT22;10732;51.472;6.466;2023-09-07T08:20:14;34.30;99.90
21149;DHT22;10732;51.472;6.466;2023-09-07T08:22:40;33.90;99.90
21149;DHT22;10732;51.472;6.466;2023-09-07T08:25:08;33.50;99.90
21149;DHT22;10732;51.472;6.466;2023-09-07T08:27:34;34.60;99.90
21149;DHT22;10732;51.472;6.466;2023-09-07T08:29:59;34.10;99.90
21149;DHT22;10732;51.472;6.466;2023-09-07T08:32:25;33.60;99.90
21149;DHT22;10732;51.472;6.466;2023-09-07T08:34:50;33.70;99.90
21149;DHT22;10732;51.472;6.466;2023-09-07T08:37:18;33.40;99.90
21149;DHT22;10732;51.472;6.466;2023-09-07T08:39:46;33.20;99.90
21149;DHT22;10732;51.472;6.466;2023-09-07T08:42:11;33.60;99.90
21149;DHT22;10732;51.472;6.466;2023-09-07T08:44:38;33.30;99.90
21149;DHT22;10732;51.472;6.466;2023-09-07T08:47:06;33.50;99.90
21149;DHT22;10732;51.472;6.466;2023-09-07T08:49:32;33.80;99.90
21149;DHT22;10732;51.472;6.466;2023-09-07T08:51:59;34.00;99.90
21149;DHT22;10732;51.472;6.466;2023-09-07T08:54:26;33.50;99.90
21149;DHT22;10732;51.472;6.466;2023-09-07T08:56:51;34.20;99.90
21149;DHT22;10732;51.472;6.466;2023-09-07T08:59:17;35.20;99.90
21149;DHT22;10732;51.472;6.466;2023-09-07T09:01:43;35.40;99.90
21149;DHT22;10732;51.472;6.466;2023-09-07T09:04:08;35.50;99.90
21149;DHT22;10732;51.472;6.466;2023-09-07T09:06:34;34.80;99.90
21149;DHT22;10732;51.472;6.466;2023-09-07T09:08:59;34.50;99.90
21149;DHT22;10732;51.472;6.466;2023-09-07T09:11:25;33.90;99.90
21149;DHT22;10732;51.472;6.466;2023-09-07T09:13:52;33.90;99.90
21149;DHT22;10732;51.472;6.466;2023-09-07T09:16:19;34.80;99.90
21149;DHT22;10732;51.472;6.466;2023-09-07T09:18:52;34.00;99.90
21149;DHT22;10732;51.472;6.466;2023-09-07T09:21:22;33.70;99.90
21149;DHT22;10732;51.472;6.466;2023-09-07T09:23:50;33.00;99.90
21149;DHT22;10732;51.472;6.466;2023-09-07T09:26:16;33.10;99.90
21149;DHT22;10732;51.472;6.466;2023-09-07T09:28:42;33.50;99.90
21149;DHT22;10732;51.472;6.466;2023-09-07T09:31:12;33.40;99.90
21149;DHT22;10732;51.472;6.466;2023-09-07T09:33:38;33.90;99.90
21149;DHT22;10732;51.472;6.466;2023-09-07T09:36:06;35.10;99.90
21149;DHT22;10732;51.472;6.466;2023-09-07T09:38:32;36.40;99.90
21149;DHT22;10732;51.472;6.466;2023-09-07T09:40:58;35.90;99.90
21149;DHT22;10732;51.472;6.466;2023-09-07T09:43:25;35.40;99.90
21149;DHT22;10732;51.472;6.466;2023-09-07T09:45:51;35.30;99.90
21149;DHT22;10732;51.472;6.466;2023-09-07T09:48:19;35.10;99.90
21149;DHT22;10732;51.472;6.466;2023-09-07T09:50:46;34.80;99.90
21149;DHT22;10732;51.472;6.466;2023-09-07T09:53:17;36.10;99.90
21149;DHT22;10732;51.472;6.466;2023-09-07T09:55:48;35.00;99.90
21149;DHT22;10732;51.472;6.466;2023-09-07T09:58:14;35.00;99.90
21149;DHT22;10732;51.472;6.466;2023-09-07T10:00:45;36.40;99.90
21149;DHT22;10732;51.472;6.466;2023-09-07T10:03:19;35.80;99.90
21149;DHT22;10732;51.472;6.466;2023-09-07T10:05:48;35.10;99.90
21149;DHT22;10732;51.472;6.466;2023-09-07T10:08:15;34.50;99.90
21149;DHT22;10732;51.472;6.466;2023-09-07T10:10:42;33.70;99.90
21149;DHT22;10732;51.472;6.466;2023-09-07T10:13:08;34.10;99.90
21149;DHT22;10732;51.472;6.466;2023-09-07T10:15:34;34.00;99.90
21149;DHT22;10732;51.472;6.466;2023-09-07T10:18:12;33.90;99.90
21149;DHT22;10732;51.472;6.466;2023-09-07T10:20:53;34.60;99.90
21149;DHT22;10732;51.472;6.466;2023-09-07T10:23:19;35.60;99.90
21149;DHT22;10732;51.472;6.466;2023-09-07T10:25:50;35.40;99.90
21149;DHT22;10732;51.472;6.466;2023-09-07T10:28:20;34.70;99.90
21149;DHT22;10732;51.472;6.466;2023-09-07T10:31:00;34.90;99.90
21149;DHT22;10732;51.472;6.466;2023-09-07T10:33:29;35.40;99.90
21149;DHT22;10732;51.472;6.466;2023-09-07T10:35:54;34.10;99.90
21149;DHT22;10732;51.472;6.466;2023-09-07T10:38:20;34.50;99.90
21149;DHT22;10732;51.472;6.466;2023-09-07T10:40:47;35.30;99.90
21149;DHT22;10732;51.472;6.466;2023-09-07T10:43:13;35.20;99.90
21149;DHT22;10732;51.472;6.466;2023-09-07T10:45:38;34.80;99.90
21149;DHT22;10732;51.472;6.466;2023-09-07T10:48:04;35.70;99.90
21149;DHT22;10732;51.472;6.466;2023-09-07T10:50:31;35.00;99.90
21149;DHT22;10732;51.472;6.466;2023-09-07T10:53:07;34.10;99.90
21149;DHT22;10732;51.472;6.466;2023-09-07T10:55:38;35.50;99.90
21149;DHT22;10732;51.472;6.466;2023-09-07T10:58:05;35.60;99.90
21149;DHT22;10732;51.472;6.466;2023-09-07T11:00:30;35.30;99.90
21149;DHT22;10732;51.472;6.466;2023-09-07T11:02:56;35.10;99.90
21149;DHT22;10732;51.472;6.466;2023-09-07T11:05:22;35.70;99.90
21149;DHT22;10732;51.472;6.466;2023-09-07T11:07:47;35.60;99.90
21149;DHT22;10732;51.472;6.466;2023-09-07T11:10:13;35.10;99.90
21149;DHT22;10732;51.472;6.466;2023-09-07T11:12:40;34.80;99.90
21149;DHT22;10732;51.472;6.466;2023-09-07T11:15:09;34.30;99.90
21149;DHT22;10732;51.472;6.466;2023-09-07T11:17:37;35.10;99.90
21149;DHT22;10732;51.472;6.466;2023-09-07T11:20:05;34.10;99.90
21149;DHT22;10732;51.472;6.466;2023-09-07T11:22:32;34.40;99.90
21149;DHT22;10732;51.472;6.466;2023-09-07T11:24:59;35.50;99.90
21149;DHT22;10732;51.472;6.466;2023-09-07T11:27:29;35.70;99.90
21149;DHT22;10732;51.472;6.466;2023-09-07T11:29:56;36.10;99.90
21149;DHT22;10732;51.472;6.466;2023-09-07T11:32:22;35.40;99.90
21149;DHT22;10732;51.472;6.466;2023-09-07T11:34:49;35.20;99.90
21149;DHT22;10732;51.472;6.466;2023-09-07T11:37:15;35.30;99.90
21149;DHT22;10732;51.472;6.466;2023-09-07T11:39:41;35.20;99.90
21149;DHT22;10732;51.472;6.466;2023-09-07T11:42:06;34.40;99.90
21149;DHT22;10732;51.472;6.466;2023-09-07T11:44:32;32.90;99.90
21149;DHT22;10732;51.472;6.466;2023-09-07T11:46:57;32.90;99.90
21149;DHT22;10732;51.472;6.466;2023-09-07T11:49:23;32.40;99.90
21149;DHT22;10732;51.472;6.466;2023-09-07T11:51:49;31.60;99.90
21149;DHT22;10732;51.472;6.466;2023-09-07T11:54:15;31.30;99.90
21149;DHT22;10732;51.472;6.466;2023-09-07T11:56:40;31.00;99.90
21149;DHT22;10732;51.472;6.466;2023-09-07T11:59:08;31.00;99.90
21149;DHT22;10732;51.472;6.466;2023-09-07T12:01:34;31.30;99.90
21149;DHT22;10732;51.472;6.466;2023-09-07T12:04:00;31.20;99.90
21149;DHT22;10732;51.472;6.466;2023-09-07T12:06:26;31.40;99.90
21149;DHT22;10732;51.472;6.466;2023-09-07T12:09:03;31.40;99.90
21149;DHT22;10732;51.472;6.466;2023-09-07T12:11:29;31.30;99.90
21149;DHT22;10732;51.472;6.466;2023-09-07T12:13:56;31.20;99.90
21149;DHT22;10732;51.472;6.466;2023-09-07T12:16:21;31.10;99.90
21149;DHT22;10732;51.472;6.466;2023-09-07T12:18:47;31.30;99.90
21149;DHT22;10732;51.472;6.466;2023-09-07T12:21:12;31.50;99.90
21149;DHT22;10732;51.472;6.466;2023-09-07T12:23:38;31.50;99.90
21149;DHT22;10732;51.472;6.466;2023-09-07T12:26:03;31.50;99.90
21149;DHT22;10732;51.472;6.466;2023-09-07T12:28:30;31.30;99.90
21149;DHT22;10732;51.472;6.466;2023-09-07T12:30:57;31.20;99.90
21149;DHT22;10732;51.472;6.466;2023-09-07T12:33:23;31.50;99.90
21149;DHT22;10732;51.472;6.466;2023-09-07T12:35:49;31.30;99.90
21149;DHT22;10732;51.472;6.466;2023-09-07T12:38:14;31.20;99.90
21149;DHT22;10732;51.472;6.466;2023-09-07T12:40:43;31.20;99.90
21149;DHT22;10732;51.472;6.466;2023-09-07T12:43:09;31.30;99.90
21149;DHT22;10732;51.472;6.466;2023-09-07T12:45:35;31.30;99.90
21149;DHT22;10732;51.472;6.466;2023-09-07T12:48:00;31.40;99.90
21149;DHT22;10732;51.472;6.466;2023-09-07T12:50:27;31.40;99.90
21149;DHT22;10732;51.472;6.466;2023-09-07T12:52:52;31.60;99.90
21149;DHT22;10732;51.472;6.466;2023-09-07T12:55:19;31.60;99.90
21149;DHT22;10732;51.472;6.466;2023-09-07T12:57:45;31.40;99.90
21149;DHT22;10732;51.472;6.466;2023-09-07T13:00:11;31.30;99.90
21149;DHT22;10732;51.472;6.466;2023-09-07T13:02:37;31.10;99.90
21149;DHT22;10732;51.472;6.466;2023-09-07T13:05:03;31.20;99.90
21149;DHT22;10732;51.472;6.466;2023-09-07T13:07:31;31.10;99.90
21149;DHT22;10732;51.472;6.466;2023-09-07T13:09:58;31.30;99.90
21149;DHT22;10732;51.472;6.466;2023-09-07T13:12:23;31.30;99.90
21149;DHT22;10732;51.472;6.466;2023-09-07T13:14:49;31.40;99.90
21149;DHT22;10732;51.472;6.466;2023-09-07T13:17:14;31.40;99.90
21149;DHT22;10732;51.472;6.466;2023-09-07T13:19:40;31.30;99.90
21149;DHT22;10732;51.472;6.466;2023-09-07T13:22:06;31.30;99.90
21149;DHT22;10732;51.472;6.466;2023-09-07T13:24:33;31.20;99.90
21149;DHT22;10732;51.472;6.466;2023-09-07T13:26:58;31.20;99.90
21149;DHT22;10732;51.472;6.466;2023-09-07T13:29:24;31.20;99.90
21149;DHT22;10732;51.472;6.466;2023-09-07T13:31:51;31.30;99.90
21149;DHT22;10732;51.472;6.466;2023-09-07T13:34:19;31.50;99.90
21149;DHT22;10732;51.472;6.466;2023-09-07T13:36:44;31.40;99.90
21149;DHT22;10732;51.472;6.466;2023-09-07T13:39:10;31.40;99.90
21149;DHT22;10732;51.472;6.466;2023-09-07T13:41:35;31.50;99.90
21149;DHT22;10732;51.472;6.466;2023-09-07T13:44:01;31.60;99.90
21149;DHT22;10732;51.472;6.466;2023-09-07T13:46:27;31.50;99.90
21149;DHT22;10732;51.472;6.466;2023-09-07T13:48:53;31.40;99.90
21149;DHT22;10732;51.472;6.466;2023-09-07T13:51:18;31.40;99.90
21149;DHT22;10732;51.472;6.466;2023-09-07T13:53:44;31.50;99.90
21149;DHT22;10732;51.472;6.466;2023-09-07T13:56:09;31.50;99.90
21149;DHT22;10732;51.472;6.466;2023-09-07T13:58:35;31.70;99.90
21149;DHT22;10732;51.472;6.466;2023-09-07T14:01:00;31.70;99.90
21149;DHT22;10732;51.472;6.466;2023-09-07T14:03:26;31.60;99.90
21149;DHT22;10732;51.472;6.466;2023-09-07T14:05:51;31.40;99.90
21149;DHT22;10732;51.472;6.466;2023-09-07T14:08:17;31.30;99.90
21149;DHT22;10732;51.472;6.466;2023-09-07T14:10:48;31.30;99.90
21149;DHT22;10732;51.472;6.466;2023-09-07T14:13:14;31.40;99.90
21149;DHT22;10732;51.472;6.466;2023-09-07T14:15:40;31.30;99.90
21149;DHT22;10732;51.472;6.466;2023-09-07T14:18:06;31.40;99.90
21149;DHT22;10732;51.472;6.466;2023-09-07T14:20:33;31.50;99.90
21149;DHT22;10732;51.472;6.466;2023-09-07T14:22:59;31.30;99.90
21149;DHT22;10732;51.472;6.466;2023-09-07T14:25:26;31.30;99.90
21149;DHT22;10732;51.472;6.466;2023-09-07T14:27:51;31.30;99.90
21149;DHT22;10732;51.472;6.466;2023-09-07T14:30:17;31.40;99.90
21149;DHT22;10732;51.472;6.466;2023-09-07T14:32:43;31.30;99.90
21149;DHT22;10732;51.472;6.466;2023-09-07T14:35:09;31.30;99.90
21149;DHT22;10732;51.472;6.466;2023-09-07T14:37:36;31.20;99.90
21149;DHT22;10732;51.472;6.466;2023-09-07T14:40:02;31.40;99.90
21149;DHT22;10732;51.472;6.466;2023-09-07T14:42:28;31.40;99.90
21149;DHT22;10732;51.472;6.466;2023-09-07T14:44:53;31.50;99.90
21149;DHT22;10732;51.472;6.466;2023-09-07T14:47:19;31.40;99.90
21149;DHT22;10732;51.472;6.466;2023-09-07T14:49:51;31.40;99.90
21149;DHT22;10732;51.472;6.466;2023-09-07T14:52:17;31.30;99.90
21149;DHT22;10732;51.472;6.466;2023-09-07T14:54:43;31.20;99.90
21149;DHT22;10732;51.472;6.466;2023-09-07T14:57:09;31.40;99.90
21149;DHT22;10732;51.472;6.466;2023-09-07T14:59:34;31.30;99.90
21149;DHT22;10732;51.472;6.466;2023-09-07T15:02:00;31.30;99.90
21149;DHT22;10732;51.472;6.466;2023-09-07T15:04:25;31.30;99.90
21149;DHT22;10732;51.472;6.466;2023-09-07T15:06:51;31.30;99.90
21149;DHT22;10732;51.472;6.466;2023-09-07T15:09:17;31.50;99.90
21149;DHT22;10732;51.472;6.466;2023-09-07T15:11:42;31.40;99.90
21149;DHT22;10732;51.472;6.466;2023-09-07T15:14:08;31.40;99.90
21149;DHT22;10732;51.472;6.466;2023-09-07T15:16:33;31.30;99.90
21149;DHT22;10732;51.472;6.466;2023-09-07T15:18:59;31.30;99.90
21149;DHT22;10732;51.472;6.466;2023-09-07T15:21:25;31.30;99.90
21149;DHT22;10732;51.472;6.466;2023-09-07T15:23:51;31.20;99.90
21149;DHT22;10732;51.472;6.466;2023-09-07T15:26:17;31.10;99.90